createdAt,value
2023-10-30T00:01:11.804Z,0.95
2023-10-30T00:03:40.461Z,1.02
2023-10-30T00:06:08.467Z,1.15
2023-10-30T00:08:37.729Z,1.20
2023-10-30T00:11:05.497Z,1.38
2023-10-30T00:13:33.342Z,1.10
2023-10-30T00:16:01.109Z,1.08
2023-10-30T00:18:29.441Z,0.90
2023-10-30T00:20:57.368Z,0.90
2023-10-30T00:23:25.127Z,1.05
2023-10-30T00:25:55.979Z,1.25
2023-10-30T00:28:23.778Z,1.10
2023-10-30T00:30:51.570Z,1.20
2023-10-30T00:33:19.334Z,1.27
2023-10-30T00:35:47.245Z,1.10
2023-10-30T00:38:15.230Z,1.05
2023-10-30T00:40:43.098Z,1.17
2023-10-30T00:43:12.679Z,1.00
2023-10-30T00:45:40.937Z,1.40
2023-10-30T00:48:09.048Z,1.30
2023-10-30T00:50:37.558Z,0.95
2023-10-30T00:53:05.975Z,1.30
2023-10-30T00:55:38.109Z,1.00
2023-10-30T00:58:08.735Z,1.20
2023-10-30T01:00:37.952Z,1.20
2023-10-30T01:03:05.967Z,1.00
2023-10-30T01:05:33.859Z,1.20
2023-10-30T01:08:01.567Z,1.25
2023-10-30T01:10:29.591Z,1.10
2023-10-30T01:12:57.388Z,1.27
2023-10-30T01:15:25.412Z,1.00
2023-10-30T01:17:54.600Z,0.95
2023-10-30T01:20:22.635Z,1.10
2023-10-30T01:22:50.582Z,1.00
2023-10-30T01:25:18.328Z,0.73
2023-10-30T01:27:46.276Z,1.02
2023-10-30T01:30:14.857Z,0.88
2023-10-30T01:32:42.897Z,0.90
2023-10-30T01:35:12.285Z,1.02
2023-10-30T01:37:40.222Z,1.17
2023-10-30T01:40:08.841Z,1.10
2023-10-30T01:42:36.966Z,1.00
2023-10-30T01:45:05.651Z,0.98
2023-10-30T01:47:33.744Z,1.10
2023-10-30T01:50:02.682Z,1.33
2023-10-30T01:52:32.879Z,1.13
2023-10-30T01:55:01.158Z,0.95
2023-10-30T01:57:29.863Z,1.20
2023-10-30T01:59:58.392Z,0.80
2023-10-30T02:02:27.999Z,0.68
2023-10-30T02:04:55.821Z,1.10
2023-10-30T02:07:23.655Z,0.75
2023-10-30T02:09:53.200Z,0.88
2023-10-30T02:12:20.940Z,0.82
2023-10-30T02:14:48.878Z,0.85
2023-10-30T02:17:16.703Z,0.90
2023-10-30T02:19:44.492Z,1.08
2023-10-30T02:22:12.462Z,0.60
2023-10-30T02:24:40.233Z,0.85
2023-10-30T02:27:10.692Z,0.80
2023-10-30T02:29:39.212Z,0.63
2023-10-30T02:32:07.229Z,1.10
2023-10-30T02:34:35.109Z,0.75
2023-10-30T02:37:04.158Z,0.82
2023-10-30T02:39:34.208Z,0.68
2023-10-30T02:42:02.393Z,1.23
2023-10-30T02:44:31.987Z,1.00
2023-10-30T02:47:00.100Z,0.60
2023-10-30T02:49:28.521Z,0.73
2023-10-30T02:51:56.637Z,0.85
2023-10-30T02:54:24.729Z,0.93
2023-10-30T02:56:52.729Z,0.85
2023-10-30T02:59:20.466Z,0.90
2023-10-30T03:01:49.769Z,1.15
2023-10-30T03:04:19.062Z,0.85
2023-10-30T03:06:47.317Z,0.90
2023-10-30T03:09:15.428Z,0.70
2023-10-30T03:11:43.182Z,1.10
2023-10-30T03:14:11.023Z,0.80
2023-10-30T03:16:39.183Z,0.85
2023-10-30T03:19:08.432Z,1.00
2023-10-30T03:21:36.196Z,0.82
2023-10-30T03:24:04.278Z,0.90
2023-10-30T03:26:32.409Z,0.57
2023-10-30T03:29:00.389Z,1.00
2023-10-30T03:31:28.482Z,0.85
2023-10-30T03:33:56.804Z,0.80
2023-10-30T03:36:26.578Z,0.80
2023-10-30T03:38:54.652Z,0.70
2023-10-30T03:41:22.606Z,0.82
2023-10-30T03:43:50.424Z,0.65
2023-10-30T03:46:18.325Z,0.77
2023-10-30T03:48:46.214Z,0.90
2023-10-30T03:51:14.356Z,0.85
2023-10-30T03:53:43.551Z,0.70
2023-10-30T03:56:11.315Z,0.60
2023-10-30T03:58:39.330Z,0.57
2023-10-30T04:01:07.954Z,0.68
2023-10-30T04:03:35.974Z,0.80
2023-10-30T04:06:04.231Z,0.98
2023-10-30T04:08:32.481Z,0.68
2023-10-30T04:11:02.716Z,0.88
2023-10-30T04:13:30.554Z,0.60
2023-10-30T04:15:58.659Z,0.60
2023-10-30T04:18:26.712Z,1.00
2023-10-30T04:20:54.611Z,0.93
2023-10-30T04:23:22.417Z,0.90
2023-10-30T04:25:50.195Z,0.85
2023-10-30T04:28:19.337Z,0.88
2023-10-30T04:30:47.410Z,1.00
2023-10-30T04:33:15.314Z,0.82
2023-10-30T04:35:43.325Z,0.73
2023-10-30T04:38:11.082Z,0.47
2023-10-30T04:40:38.873Z,0.60
2023-10-30T04:43:06.676Z,0.50
2023-10-30T04:45:36.081Z,0.65
2023-10-30T04:48:04.076Z,0.60
2023-10-30T04:50:31.935Z,0.65
2023-10-30T04:52:59.907Z,0.63
2023-10-30T04:55:27.856Z,0.63
2023-10-30T04:57:55.658Z,0.73
2023-10-30T05:00:23.711Z,0.65
2023-10-30T05:02:52.995Z,0.52
2023-10-30T05:05:21.033Z,0.40
2023-10-30T05:07:48.809Z,0.52
2023-10-30T05:10:16.714Z,0.73
2023-10-30T05:12:44.516Z,0.63
2023-10-30T05:15:12.718Z,0.70
2023-10-30T05:17:40.502Z,0.63
2023-10-30T05:20:10.696Z,0.82
2023-10-30T05:22:38.493Z,0.52
2023-10-30T05:25:06.943Z,0.63
2023-10-30T05:27:35.098Z,0.60
2023-10-30T05:30:04.150Z,0.60
2023-10-30T05:32:31.961Z,0.82
2023-10-30T05:34:59.979Z,0.60
2023-10-30T05:37:29.178Z,0.60
2023-10-30T05:39:56.938Z,0.60
2023-10-30T05:42:24.844Z,0.60
2023-10-30T05:44:52.692Z,0.70
2023-10-30T05:47:20.531Z,0.63
2023-10-30T05:49:48.718Z,0.50
2023-10-30T05:52:16.726Z,0.60
2023-10-30T05:54:46.514Z,0.50
2023-10-30T05:57:15.310Z,0.60
2023-10-30T05:59:43.632Z,0.80
2023-10-30T06:02:11.441Z,0.77
2023-10-30T06:04:39.269Z,0.60
2023-10-30T06:07:07.301Z,0.50
2023-10-30T06:09:36.060Z,0.70
2023-10-30T06:12:05.780Z,0.77
2023-10-30T06:14:33.667Z,0.60
2023-10-30T06:17:02.666Z,0.75
2023-10-30T06:19:30.769Z,0.50
2023-10-30T06:21:58.937Z,0.90
2023-10-30T06:24:27.000Z,0.90
2023-10-30T06:26:54.919Z,0.63
2023-10-30T06:29:24.424Z,0.50
2023-10-30T06:31:52.227Z,0.52
2023-10-30T06:34:19.902Z,0.73
2023-10-30T06:36:49.141Z,0.60
2023-10-30T06:39:21.711Z,0.50
2023-10-30T06:41:55.679Z,0.60
2023-10-30T06:44:25.001Z,0.30
2023-10-30T06:46:55.965Z,0.47
2023-10-30T06:49:24.562Z,0.57
2023-10-30T06:51:52.571Z,0.52
2023-10-30T06:54:20.671Z,0.63
2023-10-30T06:56:48.720Z,0.70
2023-10-30T06:59:17.216Z,0.57
2023-10-30T07:01:48.082Z,0.60
2023-10-30T07:04:16.723Z,0.80
2023-10-30T07:06:45.435Z,0.68
2023-10-30T07:09:13.508Z,0.47
2023-10-30T07:11:42.236Z,0.60
2023-10-30T07:14:10.442Z,0.70
2023-10-30T07:16:43.210Z,0.65
2023-10-30T07:19:18.305Z,0.80
2023-10-30T07:21:46.944Z,0.60
2023-10-30T07:24:14.734Z,0.80
2023-10-30T07:26:42.931Z,0.50
2023-10-30T07:29:10.744Z,0.60
2023-10-30T07:31:38.918Z,0.93
2023-10-30T07:34:07.209Z,0.65
2023-10-30T07:36:36.500Z,0.63
2023-10-30T07:39:07.089Z,0.65
2023-10-30T07:41:35.936Z,0.93
2023-10-30T07:44:04.089Z,0.70
2023-10-30T07:46:32.182Z,0.60
2023-10-30T07:49:00.394Z,0.93
2023-10-30T07:51:28.154Z,0.57
2023-10-30T07:53:57.317Z,0.77
2023-10-30T07:56:25.118Z,0.85
2023-10-30T07:58:52.818Z,0.82
2023-10-30T08:01:21.819Z,0.65
2023-10-30T08:03:49.895Z,0.60
2023-10-30T08:06:17.913Z,0.70
2023-10-30T08:08:45.706Z,0.80
2023-10-30T08:11:14.913Z,0.75
2023-10-30T08:13:43.250Z,0.80
2023-10-30T08:16:11.673Z,0.70
2023-10-30T08:18:39.633Z,0.52
2023-10-30T08:21:08.668Z,0.77
2023-10-30T08:23:38.283Z,0.90
2023-10-30T08:26:06.797Z,0.70
2023-10-30T08:28:37.005Z,0.80
2023-10-30T08:31:05.652Z,0.80
2023-10-30T08:33:33.635Z,0.90
2023-10-30T08:36:01.687Z,0.80
2023-10-30T08:38:29.417Z,0.90
2023-10-30T08:40:57.143Z,0.95
2023-10-30T08:43:24.891Z,0.82
2023-10-30T08:45:54.385Z,1.20
2023-10-30T08:48:22.263Z,1.25
2023-10-30T08:50:50.710Z,0.80
2023-10-30T08:53:19.519Z,1.15
2023-10-30T08:55:47.538Z,1.42
2023-10-30T08:58:15.733Z,1.00
2023-10-30T09:00:44.644Z,1.02
2023-10-30T09:03:14.020Z,0.93
2023-10-30T09:05:42.867Z,1.05
2023-10-30T09:08:11.154Z,1.10
2023-10-30T09:10:39.174Z,1.00
2023-10-30T09:13:07.163Z,1.10
2023-10-30T09:15:34.938Z,1.13
2023-10-30T09:18:02.866Z,1.30
2023-10-30T09:20:32.145Z,3.60
2023-10-30T09:23:00.467Z,3.92
2023-10-30T09:25:28.362Z,1.83
2023-10-30T09:27:56.745Z,1.25
2023-10-30T09:30:31.103Z,1.17
2023-10-30T09:32:59.963Z,2.75
2023-10-30T09:35:30.696Z,3.53
2023-10-30T09:38:00.264Z,3.38
2023-10-30T09:40:28.742Z,2.85
2023-10-30T09:42:57.144Z,1.60
2023-10-30T09:45:25.784Z,1.83
2023-10-30T09:47:54.340Z,2.13
2023-10-30T09:50:22.297Z,0.80
2023-10-30T09:52:51.053Z,1.50
2023-10-30T09:55:21.207Z,2.72
2023-10-30T09:57:50.139Z,2.22
2023-10-30T10:00:18.285Z,2.63
2023-10-30T10:02:46.207Z,3.40
2023-10-30T10:05:15.205Z,2.22
2023-10-30T10:07:43.100Z,5.53
2023-10-30T10:10:11.166Z,3.50
2023-10-30T10:12:40.547Z,2.10
2023-10-30T10:15:09.082Z,2.33
2023-10-30T10:17:43.462Z,2.20
2023-10-30T10:20:11.902Z,1.60
2023-10-30T10:22:41.053Z,1.63
2023-10-30T10:25:12.221Z,1.98
2023-10-30T10:27:42.213Z,1.50
2023-10-30T10:30:11.205Z,2.00
2023-10-30T10:32:39.484Z,1.00
2023-10-30T10:35:08.385Z,0.43
2023-10-30T10:37:36.478Z,0.60
2023-10-30T10:40:07.088Z,1.25
2023-10-30T10:42:35.838Z,0.82
2023-10-30T10:45:05.839Z,0.77
2023-10-30T10:47:34.051Z,0.60
2023-10-30T10:50:01.836Z,0.80
2023-10-30T10:52:32.479Z,0.70
2023-10-30T10:55:03.723Z,0.50
2023-10-30T10:57:37.114Z,0.88
2023-10-30T11:00:08.798Z,0.00
2023-10-30T11:02:39.535Z,0.13
2023-10-30T11:05:08.021Z,1.17
2023-10-30T11:07:39.493Z,1.48
2023-10-30T11:10:10.921Z,2.15
2023-10-30T11:12:44.389Z,0.77
2023-10-30T11:15:16.864Z,0.75
2023-10-30T11:18:06.626Z,0.82
2023-10-30T11:20:34.591Z,0.55
2023-10-30T11:23:02.369Z,0.63
2023-10-30T11:25:45.584Z,0.25
2023-10-30T11:28:13.430Z,0.70
2023-10-30T11:30:46.506Z,0.45
2023-10-30T11:33:22.259Z,1.00
2023-10-30T11:35:54.161Z,0.68
2023-10-30T11:38:22.578Z,0.60
2023-10-30T11:41:02.028Z,0.88
2023-10-30T11:43:31.330Z,1.30
2023-10-30T11:46:08.309Z,0.95
2023-10-30T11:48:38.620Z,1.00
2023-10-30T11:51:06.483Z,0.75
2023-10-30T11:53:34.897Z,0.93
2023-10-30T11:56:03.051Z,1.10
2023-10-30T11:58:31.694Z,1.15
2023-10-30T12:01:00.476Z,1.73
2023-10-30T12:03:30.193Z,0.15
2023-10-30T12:05:58.256Z,0.00
2023-10-30T12:08:26.204Z,1.65
2023-10-30T12:10:54.336Z,1.65
2023-10-30T12:13:22.162Z,1.00
2023-10-30T12:15:50.271Z,1.92
2023-10-30T12:18:18.560Z,1.02
2023-10-30T12:20:48.406Z,0.50
2023-10-30T12:23:18.497Z,0.10
2023-10-30T12:25:51.380Z,0.68
2023-10-30T12:28:19.107Z,0.65
2023-10-30T12:30:47.994Z,1.85
2023-10-30T12:33:23.353Z,1.40
2023-10-30T12:35:59.022Z,0.40
2023-10-30T12:38:26.996Z,0.00
2023-10-30T12:40:55.149Z,1.38
2023-10-30T12:43:23.115Z,0.95
2023-10-30T12:45:51.229Z,2.10
2023-10-30T12:48:19.271Z,0.82
2023-10-30T12:50:47.054Z,1.00
2023-10-30T12:53:16.272Z,1.17
2023-10-30T12:55:44.011Z,0.82
2023-10-30T12:58:11.946Z,2.00
2023-10-30T13:00:40.741Z,0.70
2023-10-30T13:03:09.279Z,0.65
2023-10-30T13:05:37.525Z,0.55
2023-10-30T13:08:05.827Z,1.48
2023-10-30T13:10:35.192Z,0.13
2023-10-30T13:13:02.987Z,1.02
2023-10-30T13:15:31.124Z,2.22
2023-10-30T13:17:58.901Z,1.48
2023-10-30T13:20:26.820Z,1.05
2023-10-30T13:22:54.644Z,1.00
2023-10-30T13:25:22.888Z,1.55
2023-10-30T13:27:52.461Z,2.05
2023-10-30T13:30:20.490Z,1.83
2023-10-30T13:32:48.227Z,1.35
2023-10-30T13:35:16.278Z,0.82
2023-10-30T13:37:44.423Z,2.53
2023-10-30T13:40:13.298Z,1.33
2023-10-30T13:42:41.391Z,1.20
2023-10-30T13:45:11.086Z,1.20
2023-10-30T13:47:39.058Z,0.20
2023-10-30T13:50:07.484Z,0.13
2023-10-30T13:52:36.564Z,0.30
2023-10-30T13:55:04.551Z,1.08
2023-10-30T13:57:32.718Z,0.60
2023-10-30T14:00:00.550Z,0.90
2023-10-30T14:02:29.911Z,1.25
2023-10-30T14:04:57.963Z,0.55
2023-10-30T14:07:26.186Z,0.68
2023-10-30T14:09:54.300Z,0.75
2023-10-30T14:12:23.305Z,0.40
2023-10-30T14:14:51.246Z,1.55
2023-10-30T14:17:19.010Z,0.70
2023-10-30T14:19:48.429Z,1.15
2023-10-30T14:22:16.537Z,1.92
2023-10-30T14:24:44.465Z,1.50
2023-10-30T14:27:12.387Z,1.58
2023-10-30T14:29:40.483Z,1.55
2023-10-30T14:32:08.826Z,2.20
2023-10-30T14:34:38.548Z,1.90
2023-10-30T14:37:07.866Z,1.92
2023-10-30T14:39:36.272Z,1.50
2023-10-30T14:42:04.630Z,1.40
2023-10-30T14:44:32.997Z,1.75
2023-10-30T14:47:01.046Z,2.25
2023-10-30T14:49:29.034Z,1.83
2023-10-30T14:51:56.761Z,2.15
2023-10-30T14:54:26.000Z,2.13
2023-10-30T14:56:53.894Z,1.63
2023-10-30T14:59:21.887Z,1.52
2023-10-30T15:01:49.852Z,1.80
2023-10-30T15:04:17.896Z,0.38
2023-10-30T15:06:45.883Z,1.65
2023-10-30T15:09:17.287Z,1.77
2023-10-30T15:11:46.626Z,1.67
2023-10-30T15:14:14.934Z,2.00
2023-10-30T15:16:42.969Z,1.88
2023-10-30T15:19:11.472Z,1.88
2023-10-30T15:21:39.653Z,0.60
2023-10-30T15:24:08.037Z,1.98
2023-10-30T15:26:36.866Z,2.60
2023-10-30T15:29:06.647Z,1.75
2023-10-30T15:31:34.628Z,1.85
2023-10-30T15:34:02.447Z,1.80
2023-10-30T15:36:30.432Z,1.65
2023-10-30T15:38:58.236Z,1.70
2023-10-30T15:41:26.037Z,1.10
2023-10-30T15:43:53.909Z,0.43
2023-10-30T15:46:23.176Z,2.10
2023-10-30T15:48:52.106Z,1.75
2023-10-30T15:51:20.089Z,2.28
2023-10-30T15:58:49.973Z,1.90
2023-10-30T16:01:17.838Z,1.33
2023-10-30T16:03:47.203Z,1.50
2023-10-30T16:06:15.564Z,1.23
2023-10-30T16:08:47.797Z,2.08
2023-10-30T16:13:47.196Z,1.73
2023-10-30T16:16:15.269Z,1.30
2023-10-30T16:19:15.473Z,1.20
2023-10-30T16:21:32.801Z,1.30
2023-10-30T16:24:00.597Z,1.33
2023-10-30T16:26:28.293Z,1.17
2023-10-30T16:28:56.080Z,1.65
2023-10-30T16:31:24.406Z,1.25
2023-10-30T16:33:52.129Z,1.08
2023-10-30T16:36:20.391Z,1.17
2023-10-30T16:38:49.490Z,1.05
2023-10-30T16:41:17.487Z,1.15
2023-10-30T16:43:45.238Z,1.67
2023-10-30T16:46:13.175Z,1.02
2023-10-30T16:48:41.870Z,0.88
2023-10-30T16:51:09.753Z,1.08
2023-10-30T16:53:38.519Z,1.27
2023-10-30T16:56:08.254Z,1.30
2023-10-30T16:58:36.582Z,1.73
2023-10-30T17:01:04.485Z,1.50
2023-10-30T17:03:32.264Z,1.98
2023-10-30T17:06:00.494Z,1.40
2023-10-30T17:08:28.315Z,3.67
2023-10-30T17:10:57.352Z,4.65
2023-10-30T17:13:28.210Z,4.10
2023-10-30T17:15:55.959Z,5.13
2023-10-30T17:18:27.932Z,3.78
2023-10-30T17:20:56.290Z,3.83
2023-10-30T17:23:24.233Z,2.83
2023-10-30T17:25:52.064Z,3.20
2023-10-30T17:28:19.796Z,1.60
2023-10-30T17:30:49.296Z,2.63
2023-10-30T17:33:17.106Z,2.22
2023-10-30T17:35:45.114Z,0.68
2023-10-30T17:38:12.949Z,3.55
2023-10-30T17:40:40.736Z,2.05
2023-10-30T17:43:08.943Z,1.98
2023-10-30T17:45:36.876Z,1.65
2023-10-30T17:48:06.780Z,2.30
2023-10-30T17:50:34.662Z,3.20
2023-10-30T17:53:02.591Z,3.17
2023-10-30T17:55:30.497Z,1.02
2023-10-30T17:57:58.943Z,1.55
2023-10-30T18:00:26.994Z,3.35
2023-10-30T18:02:54.949Z,1.42
2023-10-30T18:05:24.460Z,1.38
2023-10-30T18:07:52.273Z,0.77
2023-10-30T18:10:20.614Z,1.08
2023-10-30T18:12:48.391Z,2.35
2023-10-30T18:15:16.322Z,0.45
2023-10-30T18:17:44.343Z,0.40
2023-10-30T18:20:12.536Z,0.47
2023-10-30T18:22:41.803Z,0.90
2023-10-30T18:25:09.988Z,0.60
2023-10-30T18:27:37.770Z,0.50
2023-10-30T18:30:06.027Z,0.63
2023-10-30T18:32:34.126Z,0.95
2023-10-30T18:35:02.048Z,0.47
2023-10-30T18:37:30.872Z,0.70
2023-10-30T18:40:00.483Z,0.60
2023-10-30T18:42:31.152Z,0.90
2023-10-30T18:45:00.464Z,0.70
2023-10-30T18:47:28.731Z,2.00
2023-10-30T18:49:56.854Z,1.38
2023-10-30T18:52:24.800Z,1.20
2023-10-30T18:54:53.210Z,0.40
2023-10-30T18:57:22.644Z,0.90
2023-10-30T18:59:51.170Z,0.85
2023-10-30T19:02:19.177Z,1.48
2023-10-30T19:04:47.981Z,0.70
2023-10-30T19:07:15.855Z,0.60
2023-10-30T19:09:43.661Z,1.20
2023-10-30T19:12:11.492Z,0.60
2023-10-30T19:14:41.414Z,2.00
2023-10-30T19:17:09.121Z,1.50
2023-10-30T19:19:37.031Z,1.70
2023-10-30T19:22:05.179Z,1.40
2023-10-30T19:24:33.170Z,0.43
2023-10-30T19:27:01.055Z,1.63
2023-10-30T19:29:28.795Z,1.60
2023-10-30T19:31:58.079Z,0.98
2023-10-30T19:34:26.956Z,1.80
2023-10-30T19:36:54.706Z,1.38
2023-10-30T19:39:22.624Z,0.95
2023-10-30T19:41:50.392Z,0.60
2023-10-30T19:44:18.187Z,1.25
2023-10-30T19:46:46.003Z,1.00
2023-10-30T19:49:17.943Z,0.30
2023-10-30T19:51:52.696Z,0.50
2023-10-30T19:54:26.665Z,0.28
2023-10-30T19:56:54.511Z,0.32
2023-10-30T19:59:22.345Z,0.65
2023-10-30T20:01:50.233Z,0.25
2023-10-30T20:04:19.436Z,0.40
2023-10-30T20:06:47.477Z,0.50
2023-10-30T20:09:17.789Z,0.60
2023-10-30T20:11:45.846Z,0.20
2023-10-30T20:14:13.856Z,0.40
2023-10-30T20:16:41.724Z,0.10
2023-10-30T20:19:09.945Z,0.00
2023-10-30T20:21:41.122Z,0.20
2023-10-30T20:24:09.191Z,0.17
2023-10-30T20:26:37.105Z,0.10
2023-10-30T20:29:07.879Z,0.10
2023-10-30T20:31:35.915Z,0.10
2023-10-30T20:34:03.817Z,0.10
2023-10-30T20:36:32.083Z,0.10
2023-10-30T20:39:01.638Z,0.20
2023-10-30T20:41:29.378Z,0.20
2023-10-30T20:43:57.162Z,0.13
2023-10-30T20:46:25.625Z,0.38
2023-10-30T20:48:53.461Z,0.10
2023-10-30T20:51:22.121Z,0.10
2023-10-30T20:53:50.013Z,0.20
2023-10-30T20:56:20.514Z,0.20
2023-10-30T20:58:49.436Z,0.10
2023-10-30T21:01:17.436Z,0.20
2023-10-30T21:03:45.407Z,0.15
2023-10-30T21:06:13.768Z,0.20
2023-10-30T21:08:42.485Z,0.10
2023-10-30T21:11:10.540Z,0.20
2023-10-30T21:13:39.784Z,0.30
2023-10-30T21:16:07.944Z,0.10
2023-10-30T21:18:35.906Z,0.40
2023-10-30T21:21:04.043Z,0.15
2023-10-30T21:23:31.859Z,0.20
2023-10-30T21:25:59.858Z,0.10
2023-10-30T21:28:28.854Z,0.10
2023-10-30T21:30:58.148Z,0.00
2023-10-30T21:33:25.935Z,0.20
2023-10-30T21:35:54.272Z,0.20
2023-10-30T21:38:23.685Z,0.15
2023-10-30T21:40:51.924Z,0.10
2023-10-30T21:43:19.726Z,0.30
2023-10-30T21:45:47.747Z,0.30
2023-10-30T21:48:17.012Z,0.15
2023-10-30T21:50:44.779Z,0.43
2023-10-30T21:53:12.558Z,0.08
2023-10-30T21:55:40.374Z,0.10
2023-10-30T21:58:08.209Z,0.20
2023-10-30T22:00:38.197Z,0.30
2023-10-30T22:03:06.381Z,0.20
2023-10-30T22:05:35.595Z,0.15
2023-10-30T22:08:03.432Z,0.17
2023-10-30T22:10:31.293Z,0.10
2023-10-30T22:12:59.122Z,0.20
2023-10-30T22:15:27.524Z,0.03
2023-10-30T22:17:55.285Z,0.03
2023-10-30T22:20:23.851Z,0.10
2023-10-30T22:22:53.066Z,0.10
2023-10-30T22:25:20.824Z,0.10
2023-10-30T22:27:48.555Z,0.05
2023-10-30T22:30:16.471Z,0.03
2023-10-30T22:32:44.438Z,0.05
2023-10-30T22:35:12.346Z,0.15
2023-10-30T22:37:40.502Z,0.17
2023-10-30T22:40:10.352Z,0.03
2023-10-30T22:42:38.847Z,0.17
2023-10-30T22:45:07.131Z,0.10
2023-10-30T22:47:34.920Z,0.13
2023-10-30T22:50:02.811Z,0.03
2023-10-30T22:52:30.687Z,0.00
2023-10-30T22:54:59.390Z,0.10
2023-10-30T22:57:29.052Z,0.00
2023-10-30T22:59:56.791Z,0.00
2023-10-30T23:02:25.083Z,0.10
2023-10-30T23:04:52.978Z,0.03
2023-10-30T23:07:20.995Z,0.00
2023-10-30T23:09:49.077Z,0.05
2023-10-30T23:12:16.858Z,0.00
2023-10-30T23:14:46.261Z,0.00
2023-10-30T23:17:14.282Z,0.00
2023-10-30T23:19:42.085Z,0.10
2023-10-30T23:22:09.919Z,0.00
2023-10-30T23:24:37.976Z,0.10
2023-10-30T23:27:06.213Z,0.10
2023-10-30T23:29:34.282Z,0.00
2023-10-30T23:32:03.558Z,0.00
2023-10-30T23:34:31.336Z,0.00
2023-10-30T23:36:59.334Z,0.10
2023-10-30T23:39:27.653Z,0.10
2023-10-30T23:41:55.468Z,0.00
2023-10-30T23:44:23.186Z,0.30
2023-10-30T23:46:51.459Z,0.10
2023-10-30T23:49:20.882Z,0.05
2023-10-30T23:51:48.650Z,0.00
2023-10-30T23:54:22.628Z,0.10
2023-10-30T23:56:55.479Z,0.00
2023-10-30T23:59:23.209Z,0.00
